createdAt,value
2022-12-03T00:00:14.599Z,94.06
2022-12-03T00:04:17.336Z,94.16
2022-12-03T00:08:20.137Z,94.12
2022-12-03T00:12:22.840Z,94.23
2022-12-03T00:16:27.076Z,93.96
2022-12-03T00:20:29.828Z,94.06
2022-12-03T00:24:32.499Z,93.86
2022-12-03T00:28:35.201Z,93.87
2022-12-03T00:32:39.254Z,93.91
2022-12-03T00:36:41.961Z,93.55
2022-12-03T00:40:44.823Z,94.09
2022-12-03T00:44:47.477Z,93.94
2022-12-03T00:48:51.480Z,94.06
2022-12-03T00:52:54.131Z,94.00
2022-12-03T00:56:56.791Z,94.10
2022-12-03T01:00:59.630Z,94.10
2022-12-03T01:05:03.979Z,94.09
2022-12-03T01:09:06.742Z,94.08
2022-12-03T01:13:09.395Z,94.05
2022-12-03T01:17:12.402Z,94.03
2022-12-03T01:21:16.472Z,93.93
2022-12-03T01:25:19.281Z,94.08
2022-12-03T01:29:21.984Z,94.04
2022-12-03T01:33:24.682Z,94.00
2022-12-03T01:37:28.993Z,94.22
2022-12-03T01:41:32.669Z,93.91
2022-12-03T01:45:35.333Z,94.19
2022-12-03T01:49:41.800Z,94.44
2022-12-03T01:53:47.001Z,94.22
2022-12-03T01:57:52.416Z,94.30
2022-12-03T02:01:55.170Z,94.09
2022-12-03T02:05:57.904Z,94.25
2022-12-03T02:10:03.644Z,93.96
2022-12-03T02:14:08.603Z,93.99
2022-12-03T02:18:11.656Z,94.33
2022-12-03T02:22:24.190Z,94.10
2022-12-03T02:26:29.738Z,94.25
2022-12-03T02:30:33.477Z,94.29
2022-12-03T02:34:40.933Z,94.23
2022-12-03T02:38:45.405Z,94.46
2022-12-03T02:42:52.187Z,94.50
2022-12-03T02:46:54.944Z,94.30
2022-12-03T02:51:01.344Z,94.48
2022-12-03T02:55:07.351Z,94.33
2022-12-03T02:59:11.465Z,94.36
2022-12-03T03:03:14.542Z,94.07
2022-12-03T03:07:17.717Z,94.33
2022-12-03T03:11:20.500Z,94.42
2022-12-03T03:15:25.309Z,94.43
2022-12-03T03:19:28.067Z,94.51
2022-12-03T03:23:30.791Z,94.33
2022-12-03T03:27:34.252Z,94.45
2022-12-03T03:31:39.306Z,94.04
2022-12-03T03:35:43.233Z,94.30
2022-12-03T03:39:45.989Z,94.26
2022-12-03T03:43:50.937Z,93.88
2022-12-03T03:47:55.669Z,93.93
2022-12-03T03:51:58.325Z,93.76
2022-12-03T03:56:01.018Z,93.90
2022-12-03T04:00:06.432Z,93.54
2022-12-03T04:04:19.294Z,93.32
2022-12-03T04:08:22.002Z,93.38
2022-12-03T04:12:42.400Z,93.45
2022-12-03T04:16:45.219Z,93.32
2022-12-03T04:20:49.285Z,93.12
2022-12-03T04:24:52.194Z,93.19
2022-12-03T04:28:54.211Z,93.04
2022-12-03T04:33:14.276Z,92.73
2022-12-03T04:37:18.300Z,93.25
2022-12-03T04:41:20.944Z,93.25
2022-12-03T04:45:23.661Z,93.45
2022-12-03T04:49:26.770Z,93.23
2022-12-03T04:53:30.792Z,93.02
2022-12-03T04:57:33.459Z,92.83
2022-12-03T05:01:36.190Z,92.92
2022-12-03T05:05:39.038Z,92.88
2022-12-03T05:09:43.024Z,92.58
2022-12-03T05:13:45.677Z,92.51
2022-12-03T05:17:48.364Z,92.46
2022-12-03T05:21:51.025Z,92.26
2022-12-03T05:25:55.357Z,92.38
2022-12-03T05:29:58.049Z,92.49
2022-12-03T05:34:00.663Z,92.77
2022-12-03T05:38:03.380Z,92.56
2022-12-03T05:42:25.040Z,92.29
2022-12-03T05:46:27.765Z,92.06
2022-12-03T05:50:33.230Z,92.42
2022-12-03T05:54:35.875Z,92.40
2022-12-03T05:58:39.933Z,92.62
2022-12-03T06:02:43.061Z,92.76
2022-12-03T06:06:45.868Z,92.73
2022-12-03T06:10:48.657Z,92.73
2022-12-03T06:14:54.911Z,92.78
2022-12-03T06:18:57.933Z,92.86
2022-12-03T06:23:00.605Z,92.93
2022-12-03T06:27:03.357Z,92.78
2022-12-03T06:31:07.941Z,92.75
2022-12-03T06:35:10.826Z,92.37
2022-12-03T06:39:13.827Z,91.27
2022-12-03T06:43:16.533Z,90.77
2022-12-03T06:47:20.536Z,91.17
2022-12-03T06:51:23.172Z,91.19
2022-12-03T06:55:25.828Z,91.08
2022-12-03T06:59:28.487Z,90.79
2022-12-03T07:03:32.527Z,90.70
2022-12-03T07:07:35.266Z,91.02
2022-12-03T07:11:40.919Z,91.15
2022-12-03T07:15:43.730Z,91.08
2022-12-03T07:19:47.978Z,90.84
2022-12-03T07:23:50.646Z,91.45
2022-12-03T07:27:53.327Z,91.10
2022-12-03T07:31:56.189Z,90.61
2022-12-03T07:36:00.287Z,89.56
2022-12-03T07:40:03.589Z,89.62
2022-12-03T07:49:28.906Z,89.75
2022-12-03T07:53:32.906Z,90.22
2022-12-03T07:57:35.787Z,90.47
2022-12-03T08:01:38.802Z,90.89
2022-12-03T08:05:41.825Z,90.90
2022-12-03T08:09:46.265Z,93.44
2022-12-03T08:13:48.940Z,92.18
2022-12-03T08:17:56.656Z,95.55
2022-12-03T08:22:01.575Z,95.98
2022-12-03T08:26:13.933Z,95.22
2022-12-03T08:30:18.939Z,91.44
2022-12-03T08:34:23.305Z,94.00
2022-12-03T08:38:26.011Z,93.07
2022-12-03T08:42:44.866Z,89.17
2022-12-03T08:46:51.230Z,91.60
2022-12-03T08:50:55.430Z,93.08
2022-12-03T08:54:58.202Z,89.85
2022-12-03T08:59:16.664Z,88.61
2022-12-03T09:03:20.349Z,89.13
2022-12-03T09:07:22.939Z,92.28
2022-12-03T09:11:25.765Z,89.95
2022-12-03T09:15:29.725Z,88.92
2022-12-03T09:19:32.376Z,88.68
2022-12-03T09:23:34.982Z,89.07
2022-12-03T09:27:37.983Z,88.86
2022-12-03T09:31:42.341Z,89.31
2022-12-03T09:35:45.081Z,89.36
2022-12-03T09:39:47.735Z,89.00
2022-12-03T09:44:03.949Z,88.98
2022-12-03T09:48:09.055Z,89.33
2022-12-03T09:52:17.917Z,89.12
2022-12-03T09:56:23.853Z,89.39
2022-12-03T10:00:29.119Z,89.63
2022-12-03T10:04:33.189Z,89.53
2022-12-03T10:08:35.845Z,89.71
2022-12-03T10:12:38.557Z,90.00
2022-12-03T10:16:42.645Z,89.16
2022-12-03T10:20:47.329Z,89.57
2022-12-03T10:25:07.614Z,89.49
2022-12-03T10:29:13.990Z,89.88
2022-12-03T10:33:19.262Z,89.85
2022-12-03T10:37:23.880Z,90.05
2022-12-03T10:41:28.426Z,90.21
2022-12-03T10:45:31.087Z,89.94
2022-12-03T10:49:34.636Z,89.85
2022-12-03T10:53:40.904Z,89.70
2022-12-03T10:57:45.913Z,90.22
2022-12-03T11:01:49.915Z,90.01
2022-12-03T11:05:53.675Z,90.03
2022-12-03T11:09:58.816Z,90.14
2022-12-03T11:14:03.017Z,90.23
2022-12-03T11:18:05.708Z,89.87
2022-12-03T11:22:45.723Z,89.58
2022-12-03T11:27:20.730Z,88.58
2022-12-03T11:31:39.047Z,88.62
2022-12-03T11:36:31.657Z,88.67
2022-12-03T11:40:39.889Z,89.18
2022-12-03T11:44:44.007Z,88.15
2022-12-03T11:48:48.015Z,88.56
2022-12-03T11:52:54.711Z,88.35
2022-12-03T11:56:57.453Z,88.39
2022-12-03T12:01:03.047Z,88.38
2022-12-03T12:05:25.393Z,88.76
2022-12-03T12:09:54.290Z,88.87
2022-12-03T12:13:58.785Z,89.03
2022-12-03T12:18:36.143Z,88.98
2022-12-03T12:22:39.581Z,88.29
2022-12-03T12:26:51.414Z,87.67
2022-12-03T12:30:54.210Z,88.16
2022-12-03T12:35:03.179Z,88.01
2022-12-03T12:39:09.077Z,87.68
2022-12-03T12:43:24.966Z,88.00
2022-12-03T12:47:31.022Z,87.64
2022-12-03T12:51:35.241Z,89.08
2022-12-03T12:55:38.742Z,92.56
2022-12-03T12:59:41.685Z,92.94
2022-12-03T13:03:44.628Z,87.53
2022-12-03T13:07:49.287Z,90.33
2022-12-03T13:11:54.891Z,87.35
2022-12-03T13:16:04.000Z,87.66
2022-12-03T13:20:18.838Z,87.76
2022-12-03T13:24:35.157Z,88.29
2022-12-03T13:28:37.898Z,88.21
2022-12-03T13:32:43.044Z,88.22
2022-12-03T13:36:51.941Z,88.88
2022-12-03T13:41:02.991Z,88.05
2022-12-03T13:45:30.961Z,87.72
2022-12-03T13:49:35.681Z,88.17
2022-12-03T13:53:41.080Z,88.40
2022-12-03T13:57:45.132Z,88.61
2022-12-03T14:01:47.904Z,88.55
2022-12-03T14:05:50.713Z,88.48
2022-12-03T14:09:53.679Z,88.57
2022-12-03T14:13:57.962Z,88.47
2022-12-03T14:18:00.817Z,88.35
2022-12-03T14:22:03.549Z,88.60
2022-12-03T14:26:06.445Z,88.55
2022-12-03T14:30:11.995Z,88.09
2022-12-03T14:34:14.647Z,88.33
2022-12-03T14:38:17.374Z,88.62
2022-12-03T14:42:20.040Z,88.65
2022-12-03T14:46:24.215Z,88.70
2022-12-03T14:50:27.243Z,88.32
2022-12-03T14:54:30.258Z,88.04
2022-12-03T14:58:34.405Z,88.13
2022-12-03T15:02:38.608Z,93.32
2022-12-03T15:06:41.541Z,94.99
2022-12-03T15:10:44.538Z,95.00
2022-12-03T15:14:47.603Z,92.35
2022-12-03T15:18:51.676Z,87.58
2022-12-03T15:22:54.514Z,87.37
2022-12-03T15:26:57.824Z,87.94
2022-12-03T15:31:00.631Z,88.48
2022-12-03T15:35:05.262Z,88.77
2022-12-03T15:39:07.991Z,88.58
2022-12-03T15:43:11.249Z,88.69
2022-12-03T15:47:14.072Z,89.00
2022-12-03T15:51:18.133Z,88.81
2022-12-03T15:55:21.141Z,88.96
2022-12-03T15:59:23.883Z,89.02
2022-12-03T16:03:26.694Z,88.74
2022-12-03T16:07:30.935Z,88.80
2022-12-03T16:11:33.711Z,89.24
2022-12-03T16:15:36.543Z,88.96
2022-12-03T16:19:39.305Z,88.77
2022-12-03T16:23:43.509Z,89.05
2022-12-03T16:27:46.283Z,89.38
2022-12-03T16:31:48.912Z,89.29
2022-12-03T16:35:51.600Z,89.13
2022-12-03T16:39:55.921Z,89.32
2022-12-03T16:44:01.441Z,89.57
2022-12-03T16:48:04.269Z,89.40
2022-12-03T16:52:06.993Z,89.42
2022-12-03T16:56:11.068Z,89.79
2022-12-03T17:00:15.269Z,89.60
2022-12-03T17:04:18.122Z,89.55
2022-12-03T17:08:20.889Z,89.92
2022-12-03T17:12:25.504Z,89.93
2022-12-03T17:16:28.383Z,89.68
2022-12-03T17:20:31.258Z,89.63
2022-12-03T17:24:33.998Z,90.07
2022-12-03T17:28:38.201Z,89.95
2022-12-03T17:32:41.071Z,89.67
2022-12-03T17:36:43.750Z,89.81
2022-12-03T17:40:46.468Z,90.00
2022-12-03T17:44:50.548Z,90.04
2022-12-03T17:48:53.228Z,89.97
2022-12-03T17:52:55.900Z,89.75
2022-12-03T17:56:58.908Z,90.02
2022-12-03T18:01:03.534Z,90.32
2022-12-03T18:05:06.870Z,90.16
2022-12-03T18:09:09.698Z,90.12
2022-12-03T18:13:12.391Z,90.32
2022-12-03T18:17:16.806Z,90.21
2022-12-03T18:21:19.512Z,89.88
2022-12-03T18:25:22.235Z,90.21
2022-12-03T18:29:24.982Z,90.09
2022-12-03T18:33:29.681Z,89.84
2022-12-03T18:37:33.663Z,90.13
2022-12-03T18:41:37.466Z,89.88
2022-12-03T18:45:40.255Z,89.95
2022-12-03T18:49:44.361Z,89.97
2022-12-03T18:53:47.301Z,90.31
2022-12-03T18:57:50.097Z,90.24
2022-12-03T19:01:53.008Z,89.93
2022-12-03T19:05:57.636Z,89.86
2022-12-03T19:10:00.415Z,89.81
2022-12-03T19:14:03.981Z,90.16
2022-12-03T19:18:07.475Z,90.13
2022-12-03T19:22:11.615Z,89.80
2022-12-03T19:26:14.999Z,89.81
2022-12-03T19:30:18.206Z,89.97
2022-12-03T19:34:21.433Z,89.75
2022-12-03T19:38:26.962Z,90.03
2022-12-03T19:42:31.203Z,90.10
2022-12-03T19:46:34.041Z,90.40
2022-12-03T19:50:36.834Z,90.25
2022-12-03T19:54:40.926Z,90.12
2022-12-03T19:58:45.838Z,90.22
2022-12-03T20:02:49.933Z,89.96
2022-12-03T20:06:52.682Z,89.91
2022-12-03T20:10:56.955Z,90.19
2022-12-03T20:14:59.636Z,90.09
2022-12-03T20:19:05.037Z,90.20
2022-12-03T20:23:07.973Z,90.08
2022-12-03T20:27:12.068Z,89.92
2022-12-03T20:31:17.828Z,90.15
2022-12-03T20:35:20.925Z,90.09
2022-12-03T20:39:23.804Z,90.32
2022-12-03T20:43:27.963Z,90.45
2022-12-03T20:47:30.640Z,90.33
2022-12-03T20:51:33.744Z,90.25
2022-12-03T20:55:36.521Z,90.41
2022-12-03T20:59:40.705Z,90.31
2022-12-03T21:03:43.619Z,90.19
2022-12-03T21:07:47.895Z,90.10
2022-12-03T21:11:50.718Z,90.45
2022-12-03T21:16:04.449Z,90.25
2022-12-03T21:20:08.433Z,90.27
2022-12-03T21:24:13.872Z,90.52
2022-12-03T21:28:16.986Z,90.40
2022-12-03T21:32:21.217Z,90.37
2022-12-03T21:36:24.982Z,90.28
2022-12-03T21:40:27.716Z,90.17
2022-12-03T21:44:30.507Z,90.45
2022-12-03T21:48:35.008Z,90.39
2022-12-03T21:52:37.909Z,90.16
2022-12-03T21:56:40.647Z,90.90
2022-12-03T22:00:43.349Z,90.73
2022-12-03T22:04:51.801Z,90.75
2022-12-03T22:08:54.573Z,90.72
2022-12-03T22:12:57.293Z,90.36
2022-12-03T22:17:00.154Z,90.67
2022-12-03T22:21:08.223Z,90.61
2022-12-03T22:25:10.981Z,90.24
2022-12-03T22:29:14.003Z,90.44
2022-12-03T22:33:16.705Z,90.65
2022-12-03T22:37:20.865Z,90.79
2022-12-03T22:41:23.557Z,90.71
2022-12-03T22:45:26.206Z,90.95
2022-12-03T22:49:29.338Z,90.73
2022-12-03T22:53:33.365Z,90.88
2022-12-03T22:57:36.070Z,90.54
2022-12-03T23:01:40.686Z,90.80
2022-12-03T23:05:43.388Z,90.69
2022-12-03T23:09:47.523Z,90.84
2022-12-03T23:13:50.287Z,90.81
2022-12-03T23:17:54.789Z,90.63
2022-12-03T23:21:57.460Z,90.75
2022-12-03T23:26:03.161Z,90.92
2022-12-03T23:30:07.948Z,91.01
2022-12-03T23:34:10.776Z,91.04
2022-12-03T23:38:13.741Z,91.23
2022-12-03T23:42:17.816Z,90.88
2022-12-03T23:46:23.394Z,91.00
2022-12-03T23:50:26.509Z,90.88
2022-12-03T23:54:29.254Z,90.54
2022-12-03T23:58:33.849Z,90.42
